createdAt,value
2022-10-15T00:00:40.233Z,13.35
2022-10-15T00:03:07.032Z,13.26
2022-10-15T00:05:37.022Z,13.31
2022-10-15T00:08:04.315Z,13.36
2022-10-15T00:10:31.048Z,13.35
2022-10-15T00:12:57.560Z,13.36
2022-10-15T00:15:24.049Z,13.39
2022-10-15T00:17:50.522Z,13.39
2022-10-15T00:20:17.658Z,13.44
2022-10-15T00:22:44.291Z,13.46
2022-10-15T00:25:10.877Z,13.44
2022-10-15T00:27:37.384Z,13.44
2022-10-15T00:30:05.236Z,13.38
2022-10-15T00:32:32.264Z,13.26
2022-10-15T00:34:58.731Z,13.19
2022-10-15T00:37:25.589Z,13.37
2022-10-15T00:39:52.117Z,13.37
2022-10-15T00:42:18.612Z,13.30
2022-10-15T00:44:51.791Z,13.31
2022-10-15T00:47:25.176Z,13.29
2022-10-15T00:50:06.080Z,13.32
2022-10-15T00:53:02.458Z,13.34
2022-10-15T00:55:30.808Z,13.31
2022-10-15T00:58:02.084Z,13.35
2022-10-15T01:00:28.605Z,13.22
2022-10-15T01:02:56.553Z,13.19
2022-10-15T01:05:23.690Z,13.18
2022-10-15T01:07:50.220Z,13.21
2022-10-15T01:10:18.608Z,13.16
2022-10-15T01:13:03.626Z,13.19
2022-10-15T01:15:57.444Z,13.22
2022-10-15T01:18:29.066Z,13.17
2022-10-15T01:21:03.012Z,13.20
2022-10-15T01:24:00.175Z,13.21
2022-10-15T01:27:23.665Z,13.19
2022-10-15T01:30:11.555Z,13.12
2022-10-15T01:32:47.902Z,13.08
2022-10-15T01:35:29.061Z,13.06
2022-10-15T01:38:03.300Z,13.04
2022-10-15T01:40:49.466Z,13.06
2022-10-15T01:43:24.690Z,13.03
2022-10-15T01:46:17.676Z,13.12
2022-10-15T01:49:03.942Z,13.04
2022-10-15T01:51:31.816Z,13.00
2022-10-15T01:54:00.388Z,13.05
2022-10-15T01:56:28.282Z,12.98
2022-10-15T01:58:56.274Z,13.02
2022-10-15T02:01:23.128Z,13.05
2022-10-15T02:03:52.171Z,13.08
2022-10-15T02:06:28.566Z,13.08
2022-10-15T02:09:08.110Z,13.15
2022-10-15T02:12:01.404Z,13.11
2022-10-15T02:14:35.194Z,13.11
2022-10-15T02:17:11.652Z,13.12
2022-10-15T02:19:52.528Z,13.18
2022-10-15T02:22:25.204Z,13.11
2022-10-15T02:25:07.362Z,13.03
2022-10-15T02:27:35.162Z,13.03
2022-10-15T02:30:06.598Z,13.06
2022-10-15T02:32:33.419Z,13.06
2022-10-15T02:35:01.655Z,12.93
2022-10-15T02:37:29.935Z,13.02
2022-10-15T02:39:56.611Z,13.06
2022-10-15T02:42:24.612Z,12.99
2022-10-15T02:44:51.330Z,13.00
2022-10-15T02:47:17.870Z,13.04
2022-10-15T02:49:44.431Z,13.02
2022-10-15T02:52:10.887Z,12.99
2022-10-15T02:54:37.388Z,13.07
2022-10-15T02:57:03.844Z,13.02
2022-10-15T02:59:30.409Z,13.04
2022-10-15T03:01:58.318Z,13.00
2022-10-15T03:04:26.315Z,13.03
2022-10-15T03:06:52.935Z,13.08
2022-10-15T03:09:19.698Z,12.97
2022-10-15T03:11:46.981Z,13.05
2022-10-15T03:14:13.581Z,13.04
2022-10-15T03:16:40.648Z,12.98
2022-10-15T03:19:07.137Z,13.00
2022-10-15T03:21:33.944Z,13.02
2022-10-15T03:24:09.427Z,13.10
2022-10-15T03:26:36.084Z,13.01
2022-10-15T03:29:03.057Z,13.02
2022-10-15T03:31:52.396Z,13.00
2022-10-15T03:34:20.539Z,12.96
2022-10-15T03:36:47.092Z,12.96
2022-10-15T03:39:13.844Z,12.98
2022-10-15T03:41:40.720Z,12.98
2022-10-15T03:44:08.071Z,13.00
2022-10-15T03:46:37.001Z,12.94
2022-10-15T03:49:03.618Z,12.87
2022-10-15T03:51:31.650Z,12.93
2022-10-15T03:54:04.718Z,12.91
2022-10-15T03:56:34.821Z,12.93
2022-10-15T03:59:17.747Z,12.94
2022-10-15T04:01:49.968Z,12.96
2022-10-15T04:04:17.221Z,12.92
2022-10-15T04:06:47.644Z,12.94
2022-10-15T04:09:15.951Z,12.95
2022-10-15T04:11:42.507Z,12.96
2022-10-15T04:14:09.433Z,12.93
2022-10-15T04:16:35.888Z,12.96
2022-10-15T04:19:11.465Z,12.89
2022-10-15T04:21:39.501Z,12.91
2022-10-15T04:24:08.091Z,12.82
2022-10-15T04:26:38.359Z,12.90
2022-10-15T04:29:05.006Z,12.87
2022-10-15T04:31:31.883Z,12.88
2022-10-15T04:33:59.268Z,12.93
2022-10-15T04:36:26.622Z,12.90
2022-10-15T04:39:05.546Z,12.90
2022-10-15T04:41:36.629Z,12.91
2022-10-15T04:44:23.376Z,12.90
2022-10-15T04:46:54.678Z,12.90
2022-10-15T04:49:30.007Z,12.89
2022-10-15T04:51:56.758Z,12.89
2022-10-15T04:54:43.507Z,12.91
2022-10-15T04:57:09.959Z,12.87
2022-10-15T04:59:37.378Z,12.85
2022-10-15T05:02:22.465Z,12.87
2022-10-15T05:04:54.737Z,12.88
2022-10-15T05:07:21.533Z,12.87
2022-10-15T05:09:49.505Z,12.88
2022-10-15T05:12:15.971Z,12.92
2022-10-15T05:14:42.651Z,12.89
2022-10-15T05:17:15.836Z,12.86
2022-10-15T05:19:43.642Z,12.87
2022-10-15T05:22:16.939Z,12.80
2022-10-15T05:24:49.791Z,12.87
2022-10-15T05:27:33.186Z,12.85
2022-10-15T05:30:00.728Z,12.82
2022-10-15T05:32:35.552Z,12.82
2022-10-15T05:35:02.687Z,12.83
2022-10-15T05:37:46.244Z,12.91
2022-10-15T05:40:17.030Z,12.81
2022-10-15T05:42:57.624Z,12.82
2022-10-15T05:45:24.996Z,12.84
2022-10-15T05:47:55.974Z,12.79
2022-10-15T05:50:23.134Z,12.86
2022-10-15T05:52:50.579Z,12.81
2022-10-15T05:55:32.375Z,12.89
2022-10-15T05:58:02.347Z,12.88
2022-10-15T06:00:29.111Z,12.92
2022-10-15T06:02:55.602Z,12.91
2022-10-15T06:05:24.508Z,12.92
2022-10-15T06:07:50.942Z,12.82
2022-10-15T06:10:17.803Z,12.84
2022-10-15T06:12:49.978Z,12.87
2022-10-15T06:15:17.152Z,12.88
2022-10-15T06:17:43.593Z,12.88
2022-10-15T06:20:11.148Z,12.84
2022-10-15T06:25:09.126Z,12.89
2022-10-15T06:27:35.610Z,12.90
2022-10-15T06:30:02.486Z,12.90
2022-10-15T06:32:28.943Z,12.91
2022-10-15T06:34:55.520Z,12.90
2022-10-15T06:37:22.482Z,12.94
2022-10-15T06:39:50.966Z,12.95
2022-10-15T06:42:17.556Z,12.93
2022-10-15T06:44:47.360Z,12.92
2022-10-15T06:47:16.615Z,12.92
2022-10-15T06:49:47.124Z,12.92
2022-10-15T06:52:13.922Z,12.91
2022-10-15T06:54:40.451Z,13.01
2022-10-15T06:57:07.676Z,13.01
2022-10-15T06:59:37.139Z,12.96
2022-10-15T07:02:07.055Z,12.91
2022-10-15T07:04:33.516Z,13.03
2022-10-15T07:06:59.929Z,13.08
2022-10-15T07:09:27.859Z,13.09
2022-10-15T07:11:54.280Z,13.10
2022-10-15T07:14:20.718Z,13.13
2022-10-15T07:16:47.166Z,13.16
2022-10-15T07:19:13.611Z,13.19
2022-10-15T07:21:42.387Z,13.23
2022-10-15T07:24:08.899Z,13.31
2022-10-15T07:26:36.124Z,13.37
2022-10-15T07:29:03.972Z,13.39
2022-10-15T07:31:31.224Z,13.46
2022-10-15T07:33:57.707Z,13.49
2022-10-15T07:36:25.582Z,13.58
2022-10-15T07:38:52.098Z,13.63
2022-10-15T07:41:18.757Z,13.67
2022-10-15T07:43:45.475Z,13.71
2022-10-15T07:46:12.262Z,13.69
2022-10-15T07:48:38.710Z,13.68
2022-10-15T07:51:07.085Z,13.74
2022-10-15T07:53:33.800Z,13.76
2022-10-15T07:56:01.948Z,13.82
2022-10-15T07:58:34.527Z,13.77
2022-10-15T08:01:11.376Z,13.77
2022-10-15T08:03:38.217Z,13.77
2022-10-15T08:06:06.937Z,13.80
2022-10-15T08:08:34.511Z,13.82
2022-10-15T08:11:11.755Z,13.79
2022-10-15T08:13:42.205Z,13.84
2022-10-15T08:16:10.889Z,13.85
2022-10-15T08:18:37.899Z,13.93
2022-10-15T08:21:06.219Z,13.93
2022-10-15T08:23:32.968Z,13.99
2022-10-15T08:26:00.613Z,14.14
2022-10-15T08:28:31.616Z,14.18
2022-10-15T08:31:02.694Z,14.22
2022-10-15T08:33:32.114Z,14.20
2022-10-15T08:35:58.624Z,14.26
2022-10-15T08:38:25.258Z,14.35
2022-10-15T08:40:57.367Z,14.25
2022-10-15T08:43:30.285Z,14.30
2022-10-15T08:46:02.683Z,14.32
2022-10-15T08:48:40.987Z,14.31
2022-10-15T08:51:14.055Z,14.29
2022-10-15T08:53:49.376Z,14.35
2022-10-15T08:56:20.710Z,14.31
2022-10-15T08:58:47.070Z,14.29
2022-10-15T09:01:23.524Z,14.25
2022-10-15T09:04:03.237Z,14.32
2022-10-15T09:06:38.370Z,14.39
2022-10-15T09:09:45.811Z,14.43
2022-10-15T09:12:38.816Z,14.47
2022-10-15T09:15:22.573Z,14.52
2022-10-15T09:17:54.152Z,14.49
2022-10-15T09:20:32.680Z,14.99
2022-10-15T09:22:59.302Z,14.83
2022-10-15T09:25:32.397Z,14.75
2022-10-15T09:28:08.834Z,14.64
2022-10-15T09:30:49.848Z,14.58
2022-10-15T09:33:31.875Z,14.58
2022-10-15T09:36:08.787Z,14.71
2022-10-15T09:39:01.144Z,14.84
2022-10-15T09:41:45.650Z,14.85
2022-10-15T09:44:15.194Z,14.95
2022-10-15T09:46:48.829Z,15.05
2022-10-15T09:49:24.045Z,15.17
2022-10-15T09:52:08.762Z,15.19
2022-10-15T09:54:58.340Z,15.24
2022-10-15T09:57:26.348Z,15.37
2022-10-15T09:59:57.243Z,15.60
2022-10-15T10:02:26.096Z,15.61
2022-10-15T10:04:53.749Z,15.82
2022-10-15T10:07:37.764Z,15.75
2022-10-15T10:10:21.163Z,15.98
2022-10-15T10:12:47.755Z,15.93
2022-10-15T10:15:35.636Z,16.08
2022-10-15T10:18:06.493Z,16.13
2022-10-15T10:20:34.412Z,16.18
2022-10-15T10:23:05.061Z,16.10
2022-10-15T10:25:37.532Z,16.10
2022-10-15T10:28:06.007Z,16.16
2022-10-15T10:31:00.168Z,16.14
2022-10-15T10:33:30.821Z,16.18
2022-10-15T10:35:58.934Z,16.19
2022-10-15T10:38:29.532Z,16.17
2022-10-15T10:41:00.394Z,16.09
2022-10-15T10:43:29.620Z,16.10
2022-10-15T10:45:57.769Z,16.10
2022-10-15T10:48:47.404Z,16.02
2022-10-15T10:51:18.424Z,16.08
2022-10-15T10:54:09.164Z,16.12
2022-10-15T10:56:44.156Z,16.13
2022-10-15T10:59:16.754Z,16.15
2022-10-15T11:01:44.136Z,16.14
2022-10-15T11:04:24.498Z,16.16
2022-10-15T11:07:05.699Z,16.18
2022-10-15T11:09:53.758Z,16.19
2022-10-15T11:12:37.781Z,16.27
2022-10-15T11:15:35.608Z,16.39
2022-10-15T11:18:39.592Z,16.41
2022-10-15T11:21:43.437Z,16.69
2022-10-15T11:24:19.755Z,16.69
2022-10-15T11:27:11.443Z,16.86
2022-10-15T11:30:03.320Z,16.79
2022-10-15T11:33:06.108Z,16.63
2022-10-15T11:35:53.369Z,16.70
2022-10-15T11:38:56.126Z,16.87
2022-10-15T11:42:00.071Z,16.99
2022-10-15T11:44:47.489Z,16.99
2022-10-15T11:47:23.816Z,17.04
2022-10-15T11:50:18.259Z,17.03
2022-10-15T11:53:03.477Z,17.05
2022-10-15T11:55:50.279Z,17.14
2022-10-15T11:58:46.156Z,17.17
2022-10-15T12:01:21.447Z,17.23
2022-10-15T12:03:56.739Z,17.35
2022-10-15T12:06:30.292Z,17.30
2022-10-15T12:08:57.991Z,17.35
2022-10-15T12:11:45.633Z,17.32
2022-10-15T12:14:27.733Z,17.30
2022-10-15T12:16:59.983Z,17.31
2022-10-15T12:19:39.732Z,17.45
2022-10-15T12:22:12.217Z,17.50
2022-10-15T12:24:45.045Z,17.60
2022-10-15T12:27:20.246Z,17.58
2022-10-15T12:29:59.828Z,17.60
2022-10-15T12:32:29.290Z,17.52
2022-10-15T12:34:58.435Z,17.55
2022-10-15T12:37:27.763Z,17.55
2022-10-15T12:39:59.956Z,17.56
2022-10-15T12:42:31.377Z,17.63
2022-10-15T12:45:00.479Z,17.60
2022-10-15T12:48:02.066Z,17.57
2022-10-15T12:50:31.187Z,17.52
2022-10-15T12:53:00.460Z,17.49
2022-10-15T12:55:34.680Z,17.60
2022-10-15T12:58:06.684Z,17.63
2022-10-15T13:00:39.026Z,17.78
2022-10-15T13:03:52.244Z,18.13
2022-10-15T13:06:21.746Z,18.32
2022-10-15T13:08:48.300Z,18.34
2022-10-15T13:11:40.844Z,18.31
2022-10-15T13:14:40.375Z,18.31
2022-10-15T13:17:16.812Z,18.25
2022-10-15T13:20:06.154Z,18.14
2022-10-15T13:22:34.625Z,18.23
2022-10-15T13:25:01.664Z,18.14
2022-10-15T13:27:34.353Z,18.41
2022-10-15T13:30:03.629Z,18.50
2022-10-15T13:32:33.803Z,18.65
2022-10-15T13:35:02.700Z,18.77
2022-10-15T13:37:32.614Z,18.73
2022-10-15T13:40:01.874Z,18.79
2022-10-15T13:42:32.827Z,18.74
2022-10-15T13:45:15.444Z,18.74
2022-10-15T13:47:47.828Z,18.73
2022-10-15T13:50:14.242Z,18.69
2022-10-15T13:52:43.868Z,18.84
2022-10-15T13:55:17.656Z,18.85
2022-10-15T14:00:26.957Z,18.85
2022-10-15T14:03:17.157Z,18.90
2022-10-15T14:05:45.933Z,18.71
2022-10-15T14:08:33.370Z,18.79
2022-10-15T14:11:00.258Z,18.72
2022-10-15T14:13:27.779Z,18.60
2022-10-15T14:16:13.234Z,18.76
2022-10-15T14:18:48.121Z,18.78
2022-10-15T14:21:20.471Z,18.85
2022-10-15T14:23:48.499Z,18.96
2022-10-15T14:26:16.773Z,19.02
2022-10-15T14:28:49.545Z,18.90
2022-10-15T14:31:30.409Z,19.09
2022-10-15T14:33:56.883Z,18.93
2022-10-15T14:36:26.736Z,18.99
2022-10-15T14:38:54.855Z,18.89
2022-10-15T14:41:23.553Z,19.00
2022-10-15T14:44:12.025Z,18.79
2022-10-15T14:46:41.628Z,18.93
2022-10-15T14:49:28.858Z,18.63
2022-10-15T14:52:03.633Z,18.83
2022-10-15T14:54:39.725Z,18.71
2022-10-15T14:57:16.761Z,18.50
2022-10-15T14:59:43.305Z,18.70
2022-10-15T15:02:15.756Z,18.79
2022-10-15T15:04:45.304Z,18.68
2022-10-15T15:07:20.859Z,18.62
2022-10-15T15:09:47.987Z,18.63
2022-10-15T15:12:24.119Z,18.56
2022-10-15T15:14:53.691Z,18.61
2022-10-15T15:17:22.563Z,18.73
2022-10-15T15:19:51.701Z,18.99
2022-10-15T15:22:28.363Z,19.04
2022-10-15T15:24:55.687Z,19.04
2022-10-15T15:27:28.191Z,18.63
2022-10-15T15:29:55.527Z,18.59
2022-10-15T15:32:23.815Z,18.66
2022-10-15T15:34:52.271Z,18.79
2022-10-15T15:37:23.643Z,18.72
2022-10-15T15:39:50.645Z,18.66
2022-10-15T15:42:19.666Z,18.71
2022-10-15T15:44:46.403Z,18.76
2022-10-15T15:47:13.295Z,18.08
2022-10-15T15:49:40.700Z,17.92
2022-10-15T15:52:10.540Z,17.99
2022-10-15T15:54:37.010Z,17.99
2022-10-15T15:57:03.567Z,17.80
2022-10-15T15:59:30.015Z,17.60
2022-10-15T16:01:56.611Z,17.66
2022-10-15T16:04:23.199Z,17.86
2022-10-15T16:06:49.904Z,17.73
2022-10-15T16:09:17.895Z,17.93
2022-10-15T16:11:45.006Z,17.62
2022-10-15T16:14:11.941Z,17.62
2022-10-15T16:16:38.399Z,17.77
2022-10-15T16:19:05.254Z,17.61
2022-10-15T16:21:32.429Z,17.50
2022-10-15T16:24:02.590Z,17.68
2022-10-15T16:26:29.096Z,17.55
2022-10-15T16:28:55.616Z,17.56
2022-10-15T16:31:30.286Z,17.49
2022-10-15T16:33:57.403Z,17.44
2022-10-15T16:36:24.541Z,17.36
2022-10-15T16:38:51.398Z,17.36
2022-10-15T16:41:19.466Z,17.35
2022-10-15T16:43:47.315Z,17.36
2022-10-15T16:46:14.709Z,17.40
2022-10-15T16:48:41.382Z,17.26
2022-10-15T16:51:11.028Z,17.29
2022-10-15T16:53:38.422Z,17.29
2022-10-15T16:56:14.704Z,17.37
2022-10-15T16:58:41.560Z,17.41
2022-10-15T17:01:13.109Z,17.44
2022-10-15T17:03:40.640Z,17.49
2022-10-15T17:06:09.824Z,17.30
2022-10-15T17:09:05.554Z,17.41
2022-10-15T17:11:37.743Z,17.40
2022-10-15T17:14:07.569Z,17.30
2022-10-15T17:16:37.745Z,17.24
2022-10-15T17:19:04.895Z,17.22
2022-10-15T17:21:31.802Z,17.07
2022-10-15T17:24:00.935Z,17.02
2022-10-15T17:26:33.118Z,17.09
2022-10-15T17:29:00.277Z,17.03
2022-10-15T17:31:27.810Z,17.00
2022-10-15T17:33:57.462Z,17.00
2022-10-15T17:36:25.377Z,16.82
2022-10-15T17:38:52.591Z,16.81
2022-10-15T17:41:21.555Z,16.86
2022-10-15T17:43:49.155Z,16.75
2022-10-15T17:46:18.876Z,16.75
2022-10-15T17:48:46.003Z,16.93
2022-10-15T17:51:15.970Z,17.06
2022-10-15T17:53:43.594Z,16.92
2022-10-15T17:56:18.568Z,16.71
2022-10-15T17:58:45.599Z,16.85
2022-10-15T18:01:33.226Z,16.75
2022-10-15T18:04:00.080Z,16.85
2022-10-15T18:06:28.051Z,16.86
2022-10-15T18:08:54.898Z,16.81
2022-10-15T18:11:25.051Z,16.89
2022-10-15T18:13:51.875Z,16.95
2022-10-15T18:16:20.153Z,16.99
2022-10-15T18:18:47.208Z,17.01
2022-10-15T18:21:16.012Z,16.75
2022-10-15T18:23:42.833Z,16.88
2022-10-15T18:26:17.139Z,16.97
2022-10-15T18:28:47.147Z,16.95
2022-10-15T18:31:15.373Z,16.78
2022-10-15T18:33:44.381Z,16.84
2022-10-15T18:36:18.194Z,16.41
2022-10-15T18:38:44.914Z,16.51
2022-10-15T18:41:23.419Z,16.53
2022-10-15T18:43:57.853Z,16.59
2022-10-15T18:46:29.492Z,16.54
2022-10-15T18:48:56.452Z,16.26
2022-10-15T18:51:26.677Z,16.21
2022-10-15T18:53:53.397Z,16.27
2022-10-15T18:56:21.112Z,16.33
2022-10-15T18:58:47.571Z,16.10
2022-10-15T19:01:27.050Z,16.08
2022-10-15T19:03:58.573Z,15.94
2022-10-15T19:06:31.873Z,15.97
2022-10-15T19:08:59.408Z,16.05
2022-10-15T19:11:30.038Z,15.91
2022-10-15T19:13:58.305Z,15.87
2022-10-15T19:16:24.782Z,15.88
2022-10-15T19:18:51.248Z,15.58
2022-10-15T19:21:18.593Z,15.65
2022-10-15T19:23:45.062Z,15.57
2022-10-15T19:26:13.825Z,15.53
2022-10-15T19:28:40.559Z,15.32
2022-10-15T19:31:09.980Z,15.55
2022-10-15T19:33:37.688Z,15.47
2022-10-15T19:36:04.684Z,15.53
2022-10-15T19:38:31.183Z,15.44
2022-10-15T19:41:03.956Z,15.57
2022-10-15T19:43:30.531Z,15.38
2022-10-15T19:46:02.900Z,15.56
2022-10-15T19:48:29.667Z,15.47
2022-10-15T19:50:56.281Z,15.53
2022-10-15T19:53:22.714Z,15.33
2022-10-15T19:55:58.137Z,15.34
2022-10-15T19:58:24.931Z,15.42
2022-10-15T20:00:52.502Z,15.38
2022-10-15T20:03:19.984Z,15.39
2022-10-15T20:05:46.933Z,15.26
2022-10-15T20:08:14.315Z,15.24
2022-10-15T20:10:42.447Z,15.27
2022-10-15T20:13:09.204Z,15.24
2022-10-15T20:15:40.004Z,15.02
2022-10-15T20:18:06.473Z,15.16
2022-10-15T20:20:38.563Z,15.09
2022-10-15T20:23:05.383Z,15.09
2022-10-15T20:25:32.183Z,15.18
2022-10-15T20:27:58.954Z,15.21
2022-10-15T20:30:25.422Z,15.11
2022-10-15T20:32:51.843Z,15.24
2022-10-15T20:35:19.852Z,15.23
2022-10-15T20:37:47.056Z,15.00
2022-10-15T20:40:15.006Z,15.01
2022-10-15T20:42:42.037Z,15.16
2022-10-15T20:45:14.467Z,15.12
2022-10-15T20:47:44.862Z,14.99
2022-10-15T20:50:14.935Z,14.81
2022-10-15T20:52:42.264Z,14.90
2022-10-15T20:55:10.679Z,14.77
2022-10-15T20:57:38.064Z,14.64
2022-10-15T21:00:07.172Z,14.77
2022-10-15T21:02:33.918Z,14.81
2022-10-15T21:05:00.403Z,14.73
2022-10-15T21:07:27.090Z,14.71
2022-10-15T21:09:53.982Z,14.63
2022-10-15T21:12:21.132Z,14.71
2022-10-15T21:14:47.613Z,14.51
2022-10-15T21:17:14.061Z,14.54
2022-10-15T21:19:40.494Z,14.67
2022-10-15T21:22:06.915Z,14.62
2022-10-15T21:24:36.438Z,14.77
2022-10-15T21:27:02.988Z,14.76
2022-10-15T21:29:29.463Z,14.66
2022-10-15T21:31:55.981Z,14.76
2022-10-15T21:34:27.297Z,14.73
2022-10-15T21:36:55.210Z,14.43
2022-10-15T21:39:22.498Z,14.63
2022-10-15T21:41:49.110Z,14.55
2022-10-15T21:44:15.642Z,14.66
2022-10-15T21:46:43.216Z,14.56
2022-10-15T21:49:10.071Z,14.56
2022-10-15T21:51:37.654Z,14.63
2022-10-15T21:54:06.231Z,14.60
2022-10-15T21:56:33.771Z,14.63
2022-10-15T21:59:00.320Z,14.57
2022-10-15T22:01:31.088Z,14.63
2022-10-15T22:04:03.388Z,14.56
2022-10-15T22:06:30.327Z,14.61
2022-10-15T22:08:57.701Z,14.54
2022-10-15T22:11:28.010Z,14.52
2022-10-15T22:13:57.228Z,14.59
2022-10-15T22:16:25.508Z,14.61
2022-10-15T22:18:52.407Z,14.59
2022-10-15T22:21:21.660Z,14.46
2022-10-15T22:23:54.513Z,14.47
2022-10-15T22:26:23.944Z,14.43
2022-10-15T22:28:52.969Z,14.47
2022-10-15T22:31:20.155Z,14.44
2022-10-15T22:33:47.184Z,14.46
2022-10-15T22:36:17.452Z,14.34
2022-10-15T22:38:47.507Z,14.40
2022-10-15T22:41:15.152Z,14.43
2022-10-15T22:43:42.084Z,14.34
2022-10-15T22:46:08.611Z,14.38
2022-10-15T22:48:37.081Z,14.35
2022-10-15T22:51:05.666Z,14.33
2022-10-15T22:53:32.600Z,14.23
2022-10-15T22:56:05.252Z,14.24
2022-10-15T22:58:33.422Z,14.25
2022-10-15T23:01:14.793Z,14.24
2022-10-15T23:03:43.429Z,14.22
2022-10-15T23:06:10.838Z,14.29
2022-10-15T23:08:37.472Z,14.06
2022-10-15T23:11:15.847Z,14.05
2022-10-15T23:13:43.391Z,14.11
2022-10-15T23:16:16.666Z,14.26
2022-10-15T23:18:44.331Z,14.15
2022-10-15T23:21:14.722Z,14.17
2022-10-15T23:23:42.696Z,14.14
2022-10-15T23:26:15.133Z,14.13
2022-10-15T23:28:43.280Z,14.18
2022-10-15T23:31:17.459Z,14.13
2022-10-15T23:33:44.663Z,14.07
2022-10-15T23:36:11.208Z,14.10
2022-10-15T23:38:37.640Z,14.12
2022-10-15T23:41:06.514Z,14.07
2022-10-15T23:43:33.656Z,14.08
2022-10-15T23:46:00.713Z,13.96
2022-10-15T23:48:28.240Z,14.02
2022-10-15T23:50:59.290Z,14.03
2022-10-15T23:53:29.001Z,13.98
2022-10-15T23:55:55.453Z,13.94
2022-10-15T23:58:21.957Z,13.97
